createdAt,value
2018-11-28T00:02:04.014Z,5.18
2018-11-28T00:04:34.059Z,5.22
2018-11-28T00:07:03.595Z,5.16
2018-11-28T00:09:39.829Z,5.22
2018-11-28T00:12:12.187Z,5.16
2018-11-28T00:14:40.807Z,5.20
2018-11-28T00:17:44.144Z,5.08
2018-11-28T00:20:27.915Z,5.16
2018-11-28T00:26:15.205Z,5.02
2018-11-28T00:28:43.780Z,5.05
2018-11-28T00:31:12.427Z,5.01
2018-11-28T00:33:42.548Z,4.97
2018-11-28T00:36:25.388Z,4.94
2018-11-28T00:38:53.989Z,4.95
2018-11-28T00:41:22.584Z,4.75
2018-11-28T00:43:52.705Z,4.64
2018-11-28T00:46:21.372Z,4.64
2018-11-28T00:48:49.965Z,4.63
2018-11-28T00:51:18.658Z,4.55
2018-11-28T00:53:47.269Z,4.39
2018-11-28T00:56:15.951Z,4.35
2018-11-28T00:58:44.710Z,4.46
2018-11-28T01:01:13.352Z,4.55
2018-11-28T01:03:42.023Z,4.40
2018-11-28T01:06:10.628Z,4.34
2018-11-28T01:08:39.374Z,4.36
2018-11-28T01:11:08.045Z,4.27
2018-11-28T01:13:36.671Z,4.32
2018-11-28T01:16:05.823Z,4.16
2018-11-28T01:18:34.456Z,4.25
2018-11-28T01:21:03.133Z,4.30
2018-11-28T01:23:31.708Z,4.32
2018-11-28T01:26:00.310Z,4.29
2018-11-28T01:28:28.940Z,4.39
2018-11-28T01:30:57.620Z,4.36
2018-11-28T01:33:26.265Z,4.27
2018-11-28T01:35:54.918Z,4.30
2018-11-28T01:38:23.536Z,4.40
2018-11-28T01:40:52.152Z,4.29
2018-11-28T01:43:20.866Z,4.34
2018-11-28T01:45:49.481Z,4.31
2018-11-28T01:48:18.143Z,4.29
2018-11-28T01:50:46.781Z,4.27
2018-11-28T01:53:15.395Z,4.33
2018-11-28T01:55:44.005Z,4.30
2018-11-28T01:58:12.581Z,4.42
2018-11-28T02:00:41.264Z,4.46
2018-11-28T02:03:09.921Z,4.50
2018-11-28T02:05:38.518Z,4.48
2018-11-28T02:08:07.276Z,4.40
2018-11-28T02:10:35.985Z,4.48
2018-11-28T02:13:04.677Z,4.30
2018-11-28T02:15:33.313Z,4.29
2018-11-28T02:18:01.944Z,4.17
2018-11-28T02:20:30.727Z,4.19
2018-11-28T02:22:59.342Z,4.22
2018-11-28T02:25:27.949Z,4.22
2018-11-28T02:27:56.685Z,4.23
2018-11-28T02:30:25.347Z,3.94
2018-11-28T02:32:54.065Z,3.81
2018-11-28T02:35:22.697Z,3.69
2018-11-28T02:37:51.311Z,3.49
2018-11-28T02:40:20.533Z,3.40
2018-11-28T02:42:50.130Z,3.41
2018-11-28T02:45:20.697Z,3.29
2018-11-28T02:47:49.386Z,3.09
2018-11-28T02:50:18.091Z,2.98
2018-11-28T02:52:46.798Z,2.90
2018-11-28T02:55:22.362Z,2.86
2018-11-28T03:12:30.094Z,1.84
2018-11-28T03:14:58.738Z,1.81
2018-11-28T03:17:27.382Z,1.71
2018-11-28T03:19:56.039Z,1.80
2018-11-28T03:22:24.654Z,1.74
2018-11-28T03:24:53.268Z,1.66
2018-11-28T03:27:22.214Z,1.70
2018-11-28T03:29:50.801Z,1.72
2018-11-28T03:32:19.409Z,1.58
2018-11-28T03:34:48.064Z,1.34
2018-11-28T03:37:16.677Z,1.28
2018-11-28T03:39:45.278Z,1.36
2018-11-28T03:42:13.870Z,1.37
2018-11-28T03:44:42.442Z,1.44
2018-11-28T03:47:11.068Z,1.34
2018-11-28T03:49:39.683Z,1.35
2018-11-28T03:52:08.435Z,1.31
2018-11-28T03:54:37.530Z,1.38
2018-11-28T03:57:06.333Z,1.50
2018-11-28T03:59:34.900Z,1.34
2018-11-28T04:02:03.548Z,1.26
2018-11-28T04:04:32.151Z,1.26
2018-11-28T04:07:00.748Z,1.28
2018-11-28T04:09:29.384Z,1.16
2018-11-28T04:11:58.127Z,1.14
2018-11-28T04:14:26.724Z,1.21
2018-11-28T04:16:55.390Z,1.30
2018-11-28T04:19:24.019Z,1.27
2018-11-28T04:21:52.643Z,1.30
2018-11-28T04:24:21.310Z,1.41
2018-11-28T04:26:49.949Z,1.30
2018-11-28T04:29:18.946Z,1.36
2018-11-28T04:31:47.582Z,1.42
2018-11-28T04:34:16.228Z,1.42
2018-11-28T04:36:44.936Z,1.44
2018-11-28T04:39:13.549Z,1.47
2018-11-28T04:41:42.137Z,1.47
2018-11-28T04:44:10.789Z,1.48
2018-11-28T04:46:39.477Z,1.23
2018-11-28T04:49:08.446Z,1.23
2018-11-28T04:51:37.171Z,1.35
2018-11-28T04:54:05.850Z,1.42
2018-11-28T04:56:34.595Z,1.38
2018-11-28T04:59:03.213Z,1.41
2018-11-28T05:01:31.932Z,1.35
2018-11-28T05:04:00.574Z,1.49
2018-11-28T05:07:33.450Z,1.45
2018-11-28T05:10:02.125Z,1.21
2018-11-28T05:12:30.808Z,1.14
2018-11-28T05:14:59.402Z,1.17
2018-11-28T05:17:28.164Z,1.13
2018-11-28T05:19:56.875Z,1.01
2018-11-28T05:22:25.547Z,0.95
2018-11-28T05:24:54.230Z,1.05
2018-11-28T05:27:22.856Z,1.10
2018-11-28T05:29:51.517Z,1.07
2018-11-28T05:32:20.184Z,1.24
2018-11-28T05:34:48.866Z,1.38
2018-11-28T05:37:17.495Z,1.40
2018-11-28T05:39:46.563Z,1.54
2018-11-28T05:42:15.172Z,1.57
2018-11-28T05:44:43.786Z,1.69
2018-11-28T05:47:12.451Z,1.67
2018-11-28T05:49:41.093Z,1.63
2018-11-28T05:52:09.817Z,1.61
2018-11-28T05:54:38.468Z,1.56
2018-11-28T05:57:07.648Z,1.52
2018-11-28T05:59:36.319Z,1.38
2018-11-28T06:02:05.217Z,1.41
2018-11-28T06:04:33.880Z,1.40
2018-11-28T06:07:02.545Z,1.41
2018-11-28T06:09:31.256Z,1.32
2018-11-28T06:11:59.905Z,1.21
2018-11-28T06:14:28.670Z,1.22
2018-11-28T06:16:57.405Z,1.27
2018-11-28T06:19:26.099Z,1.32
2018-11-28T06:21:54.796Z,1.27
2018-11-28T06:24:23.464Z,1.27
2018-11-28T06:26:52.075Z,1.33
2018-11-28T06:29:20.774Z,1.35
2018-11-28T06:31:49.440Z,1.45
2018-11-28T06:34:18.036Z,1.50
2018-11-28T06:36:46.646Z,1.47
2018-11-28T06:39:15.391Z,1.46
2018-11-28T06:41:44.044Z,1.40
2018-11-28T06:44:12.697Z,1.59
2018-11-28T06:46:41.396Z,1.65
2018-11-28T06:49:10.023Z,1.67
2018-11-28T06:51:38.716Z,1.72
2018-11-28T06:54:07.363Z,1.80
2018-11-28T06:56:36.095Z,1.77
2018-11-28T06:59:04.850Z,1.89
2018-11-28T07:06:20.662Z,1.87
2018-11-28T07:08:49.967Z,1.89
2018-11-28T07:11:18.632Z,1.92
2018-11-28T07:13:47.387Z,1.90
2018-11-28T07:16:16.032Z,1.92
2018-11-28T07:18:55.644Z,2.08
2018-11-28T07:21:24.282Z,2.05
2018-11-28T07:23:53.604Z,2.13
2018-11-28T07:26:22.266Z,2.10
2018-11-28T07:28:51.497Z,2.21
2018-11-28T07:31:20.218Z,2.31
2018-11-28T07:33:48.912Z,2.28
2018-11-28T07:36:17.481Z,2.21
2018-11-28T07:38:46.093Z,2.04
2018-11-28T07:41:14.750Z,2.15
2018-11-28T07:43:43.451Z,2.07
2018-11-28T07:46:12.067Z,2.18
2018-11-28T07:48:40.748Z,2.20
2018-11-28T07:51:09.472Z,2.05
2018-11-28T07:53:38.126Z,1.99
2018-11-28T07:56:06.878Z,1.91
2018-11-28T07:58:35.493Z,1.95
2018-11-28T08:01:04.175Z,1.90
2018-11-28T08:03:32.827Z,1.89
2018-11-28T08:06:01.488Z,2.02
2018-11-28T08:08:34.230Z,2.01
2018-11-28T08:11:03.014Z,2.03
2018-11-28T08:13:31.656Z,1.91
2018-11-28T08:16:00.267Z,1.84
2018-11-28T08:18:28.897Z,1.96
2018-11-28T08:20:57.643Z,1.96
2018-11-28T08:23:26.253Z,2.00
2018-11-28T08:25:54.996Z,1.98
2018-11-28T08:28:23.725Z,1.91
2018-11-28T08:30:52.379Z,1.87
2018-11-28T08:33:21.481Z,1.75
2018-11-28T08:35:50.594Z,1.61
2018-11-28T08:38:19.301Z,1.50
2018-11-28T08:40:47.924Z,1.42
2018-11-28T08:43:16.609Z,1.18
2018-11-28T08:45:45.394Z,0.95
2018-11-28T08:48:19.776Z,0.91
2018-11-28T08:50:49.163Z,0.98
2018-11-28T08:53:17.785Z,1.06
2018-11-28T08:55:46.537Z,1.11
2018-11-28T08:58:15.158Z,1.28
2018-11-28T09:00:43.789Z,1.30
2018-11-28T09:03:12.464Z,1.37
2018-11-28T09:05:41.110Z,1.49
2018-11-28T09:08:10.045Z,1.62
2018-11-28T09:10:38.713Z,1.53
2018-11-28T09:13:07.587Z,1.57
2018-11-28T09:15:36.266Z,1.21
2018-11-28T09:18:05.049Z,1.26
2018-11-28T09:20:33.954Z,1.33
2018-11-28T09:23:02.376Z,1.24
2018-11-28T09:25:31.021Z,1.32
2018-11-28T09:28:00.004Z,1.36
2018-11-28T09:30:28.711Z,1.56
2018-11-28T09:32:57.358Z,1.58
2018-11-28T09:35:26.033Z,1.60
2018-11-28T09:37:54.996Z,1.75
2018-11-28T09:40:24.730Z,1.63
2018-11-28T09:42:54.556Z,1.56
2018-11-28T09:45:23.230Z,1.24
2018-11-28T09:47:52.239Z,1.18
2018-11-28T09:50:21.858Z,1.20
2018-11-28T09:52:50.554Z,1.34
2018-11-28T09:55:28.536Z,1.38
2018-11-28T09:57:57.896Z,1.37
2018-11-28T10:00:30.066Z,1.41
2018-11-28T10:02:59.706Z,1.54
2018-11-28T10:05:30.433Z,1.54
2018-11-28T10:07:59.165Z,1.58
2018-11-28T10:10:27.793Z,1.51
2018-11-28T10:12:56.556Z,1.58
2018-11-28T10:15:26.139Z,1.49
2018-11-28T10:17:54.834Z,1.16
2018-11-28T10:20:23.461Z,1.20
2018-11-28T10:22:53.028Z,1.32
2018-11-28T10:25:22.917Z,1.30
2018-11-28T10:27:55.148Z,1.27
2018-11-28T10:30:24.992Z,1.26
2018-11-28T10:32:54.502Z,1.25
2018-11-28T10:35:23.268Z,1.23
2018-11-28T10:37:52.013Z,1.29
2018-11-28T10:40:21.671Z,1.29
2018-11-28T10:42:51.509Z,1.37
2018-11-28T10:45:22.842Z,1.40
2018-11-28T10:47:52.024Z,1.32
2018-11-28T10:50:20.739Z,1.27
2018-11-28T10:52:49.412Z,1.34
2018-11-28T10:55:19.968Z,1.30
2018-11-28T10:57:48.730Z,1.25
2018-11-28T11:00:24.673Z,1.23
2018-11-28T11:02:58.517Z,1.12
2018-11-28T11:05:32.334Z,1.14
2018-11-28T11:08:06.255Z,1.05
2018-11-28T11:10:40.296Z,1.00
2018-11-28T11:13:14.199Z,1.02
2018-11-28T11:15:43.020Z,1.07
2018-11-28T11:18:12.566Z,1.03
2018-11-28T11:20:41.183Z,1.00
2018-11-28T11:23:09.960Z,1.10
2018-11-28T11:25:38.691Z,1.13
2018-11-28T11:28:07.696Z,1.03
2018-11-28T11:30:36.440Z,0.94
2018-11-28T11:33:05.365Z,1.11
2018-11-28T11:35:34.095Z,1.22
2018-11-28T11:38:02.910Z,1.17
2018-11-28T11:40:31.558Z,1.20
2018-11-28T11:43:00.321Z,1.14
2018-11-28T11:45:29.030Z,1.09
2018-11-28T11:47:57.734Z,1.14
2018-11-28T11:50:26.577Z,1.03
2018-11-28T11:52:55.370Z,0.89
2018-11-28T11:55:24.059Z,0.85
2018-11-28T11:57:53.525Z,0.94
2018-11-28T12:00:26.657Z,1.02
2018-11-28T12:02:59.845Z,1.07
2018-11-28T12:05:28.562Z,1.15
2018-11-28T12:07:57.239Z,1.17
2018-11-28T12:10:25.945Z,1.08
2018-11-28T12:12:54.636Z,0.99
2018-11-28T12:15:23.512Z,0.92
2018-11-28T12:17:52.156Z,1.03
2018-11-28T12:20:27.477Z,1.07
2018-11-28T12:22:56.102Z,0.92
2018-11-28T12:25:24.884Z,0.96
2018-11-28T12:27:53.530Z,0.97
2018-11-28T12:30:23.232Z,0.90
2018-11-28T12:32:51.940Z,0.64
2018-11-28T12:35:20.816Z,0.66
2018-11-28T12:37:49.487Z,0.69
2018-11-28T12:40:18.313Z,0.76
2018-11-28T12:42:48.607Z,0.71
2018-11-28T12:45:18.198Z,0.65
2018-11-28T12:47:48.068Z,0.73
2018-11-28T12:50:22.950Z,0.61
2018-11-28T12:52:52.210Z,0.65
2018-11-28T12:55:21.336Z,0.57
2018-11-28T12:57:50.437Z,0.48
2018-11-28T13:00:21.949Z,0.57
2018-11-28T13:02:50.899Z,0.65
2018-11-28T13:05:33.809Z,0.74
2018-11-28T13:08:02.610Z,0.60
2018-11-28T13:10:34.754Z,0.63
2018-11-28T13:13:03.638Z,0.60
2018-11-28T13:15:32.341Z,0.59
2018-11-28T13:18:01.002Z,0.46
2018-11-28T13:20:30.091Z,0.41
2018-11-28T13:22:58.811Z,0.35
2018-11-28T13:25:28.327Z,0.37
2018-11-28T13:27:57.382Z,0.22
2018-11-28T13:30:26.604Z,0.18
2018-11-28T13:32:55.955Z,0.08
2018-11-28T13:35:26.694Z,-0.03
2018-11-28T13:37:59.094Z,-0.13
2018-11-28T13:40:27.779Z,-0.13
2018-11-28T13:42:56.403Z,-0.07
2018-11-28T13:45:27.761Z,-0.09
2018-11-28T13:47:56.710Z,-0.13
2018-11-28T13:50:25.444Z,-0.23
2018-11-28T13:52:55.027Z,-0.10
2018-11-28T13:55:38.216Z,-0.22
2018-11-28T13:57:58.035Z,-0.43
2018-11-28T14:00:26.758Z,-0.48
2018-11-28T14:02:55.594Z,-0.51
2018-11-28T14:05:24.356Z,-0.37
2018-11-28T14:07:53.695Z,-0.40
2018-11-28T14:10:22.448Z,-0.63
2018-11-28T14:12:51.344Z,-0.45
2018-11-28T14:15:22.811Z,-0.43
2018-11-28T14:17:55.988Z,-0.44
2018-11-28T14:20:24.680Z,-0.41
2018-11-28T14:22:53.349Z,-0.39
2018-11-28T14:25:22.050Z,-0.38
2018-11-28T14:27:50.935Z,-0.38
2018-11-28T14:30:20.641Z,-0.63
2018-11-28T14:32:49.666Z,-0.87
2018-11-28T14:35:18.580Z,-0.77
2018-11-28T14:37:47.356Z,-0.70
2018-11-28T14:40:17.907Z,-0.68
2018-11-28T14:42:48.830Z,-0.73
2018-11-28T14:45:18.272Z,-0.69
2018-11-28T14:47:49.146Z,-0.76
2018-11-28T14:50:29.530Z,-0.74
2018-11-28T14:53:00.183Z,-0.83
2018-11-28T14:55:30.781Z,-0.81
2018-11-28T14:57:59.507Z,-0.85
2018-11-28T15:00:29.305Z,-0.73
2018-11-28T15:03:01.173Z,-0.90
2018-11-28T15:06:11.764Z,-1.02
2018-11-28T15:08:40.529Z,-1.05
2018-11-28T15:11:15.801Z,-1.03
2018-11-28T15:13:44.980Z,-1.09
2018-11-28T15:16:18.311Z,-0.96
2018-11-28T15:18:47.156Z,-0.90
2018-11-28T15:21:15.932Z,-0.85
2018-11-28T15:23:44.705Z,-0.89
2018-11-28T15:26:13.355Z,-0.98
2018-11-28T15:28:43.090Z,-0.99
2018-11-28T15:31:11.818Z,-0.94
2018-11-28T15:33:40.513Z,-0.84
2018-11-28T15:36:09.216Z,-0.81
2018-11-28T15:38:38.188Z,-0.78
2018-11-28T15:41:07.180Z,-0.90
2018-11-28T15:43:42.367Z,-0.78
2018-11-28T15:46:14.808Z,-0.87
2018-11-28T15:48:39.852Z,-0.78
2018-11-28T15:51:08.622Z,-0.80
2018-11-28T15:53:37.410Z,-0.73
2018-11-28T15:56:06.420Z,-0.71
2018-11-28T15:58:35.184Z,-0.76
2018-11-28T16:01:03.919Z,-0.91
2018-11-28T16:03:32.684Z,-0.86
2018-11-28T16:06:01.438Z,-0.84
2018-11-28T16:08:30.094Z,-0.86
2018-11-28T16:10:58.742Z,-0.79
2018-11-28T16:13:27.324Z,-0.97
2018-11-28T16:15:57.217Z,-0.96
2018-11-28T16:18:25.920Z,-0.89
2018-11-28T16:20:54.598Z,-0.89
2018-11-28T16:23:23.262Z,-0.91
2018-11-28T16:25:51.880Z,-0.86
2018-11-28T16:28:20.666Z,-1.30
2018-11-28T16:30:49.322Z,-1.48
2018-11-28T16:33:17.979Z,-1.39
2018-11-28T16:35:46.634Z,-1.35
2018-11-28T16:38:15.313Z,-1.24
2018-11-28T16:40:43.967Z,-1.22
2018-11-28T16:43:12.751Z,-1.10
2018-11-28T16:45:41.936Z,-1.16
2018-11-28T16:48:10.156Z,-1.16
2018-11-28T16:50:38.775Z,-1.14
2018-11-28T16:53:08.085Z,-1.07
2018-11-28T16:55:38.754Z,-1.11
2018-11-28T16:58:10.897Z,-1.34
2018-11-28T17:00:41.291Z,-1.49
2018-11-28T17:03:09.942Z,-1.45
2018-11-28T17:05:38.874Z,-1.54
2018-11-28T17:08:09.334Z,-1.43
2018-11-28T17:10:38.031Z,-1.44
2018-11-28T17:13:07.354Z,-1.46
2018-11-28T17:15:36.106Z,-1.50
2018-11-28T17:18:08.266Z,-1.51
2018-11-28T17:20:39.370Z,-1.60
2018-11-28T17:23:08.140Z,-1.51
2018-11-28T17:25:36.843Z,-1.50
2018-11-28T17:28:05.787Z,-1.64
2018-11-28T17:30:34.506Z,-1.73
2018-11-28T17:33:03.085Z,-1.78
2018-11-28T17:35:31.763Z,-1.72
2018-11-28T17:38:01.953Z,-1.63
2018-11-28T17:40:30.631Z,-1.68
2018-11-28T17:43:00.061Z,-1.70
2018-11-28T17:45:29.498Z,-1.54
2018-11-28T17:47:58.095Z,-1.56
2018-11-28T17:50:27.407Z,-1.44
2018-11-28T17:53:16.266Z,-1.52
2018-11-28T17:55:48.487Z,-1.51
2018-11-28T17:58:17.189Z,-1.51
2018-11-28T18:00:45.908Z,-1.46
2018-11-28T18:03:14.700Z,-1.47
2018-11-28T18:05:43.360Z,-1.44
2018-11-28T18:08:12.008Z,-1.46
2018-11-28T18:10:40.711Z,-1.45
2018-11-28T18:13:12.499Z,-1.61
2018-11-28T18:15:44.894Z,-1.60
2018-11-28T18:18:14.948Z,-1.65
2018-11-28T18:20:49.908Z,-1.64
2018-11-28T18:23:13.062Z,-1.59
2018-11-28T18:25:42.342Z,-1.60
2018-11-28T18:28:11.143Z,-1.55
2018-11-28T18:30:40.210Z,-1.56
2018-11-28T18:33:10.086Z,-1.50
2018-11-28T18:35:38.731Z,-1.49
2018-11-28T18:38:07.433Z,-1.47
2018-11-28T18:40:36.578Z,-1.55
2018-11-28T18:43:05.794Z,-1.52
2018-11-28T18:45:36.443Z,-1.49
2018-11-28T18:48:04.593Z,-1.58
2018-11-28T18:50:33.337Z,-1.52
2018-11-28T18:53:01.952Z,-1.77
2018-11-28T18:55:30.610Z,-1.59
2018-11-28T18:57:59.295Z,-1.75
2018-11-28T19:00:28.374Z,-1.58
2018-11-28T19:02:57.248Z,-1.57
2018-11-28T19:05:25.940Z,-1.61
2018-11-28T19:07:54.670Z,-1.63
2018-11-28T19:10:26.643Z,-1.52
2018-11-28T19:12:53.954Z,-1.57
2018-11-28T19:15:25.879Z,-1.53
2018-11-28T19:17:55.439Z,-1.57
2018-11-28T19:20:24.577Z,-1.53
2018-11-28T19:22:56.235Z,-1.51
2018-11-28T19:25:38.106Z,-1.43
2018-11-28T19:28:06.818Z,-1.41
2018-11-28T19:30:46.389Z,-1.40
2018-11-28T19:33:15.925Z,-1.34
2018-11-28T19:35:44.951Z,-1.37
2018-11-28T19:38:14.854Z,-1.39
2018-11-28T19:40:48.316Z,-1.37
2018-11-28T19:43:17.028Z,-1.35
2018-11-28T19:45:46.848Z,-1.59
2018-11-28T19:48:15.546Z,-1.49
2018-11-28T19:50:44.239Z,-1.56
2018-11-28T19:53:13.048Z,-1.51
2018-11-28T19:55:42.559Z,-1.45
2018-11-28T19:58:11.498Z,-1.51
2018-11-28T20:00:43.160Z,-1.44
2018-11-28T20:03:11.861Z,-1.56
2018-11-28T20:05:40.552Z,-1.47
2018-11-28T20:08:09.300Z,-1.44
2018-11-28T20:10:38.005Z,-1.49
2018-11-28T20:13:08.382Z,-1.57
2018-11-28T20:15:37.247Z,-1.58
2018-11-28T20:18:06.556Z,-1.58
2018-11-28T20:20:35.378Z,-1.61
2018-11-28T20:23:04.002Z,-1.57
2018-11-28T20:25:32.677Z,-1.57
2018-11-28T20:28:01.299Z,-1.59
2018-11-28T20:30:31.542Z,-1.73
2018-11-28T20:33:00.343Z,-1.70
2018-11-28T20:35:29.034Z,-1.64
2018-11-28T20:37:58.284Z,-1.71
2018-11-28T20:40:31.325Z,-1.71
2018-11-28T20:43:00.046Z,-1.76
2018-11-28T20:45:29.368Z,-1.89
2018-11-28T20:47:58.064Z,-1.77
2018-11-28T20:50:32.369Z,-1.82
2018-11-28T20:53:07.100Z,-1.90
2018-11-28T20:55:35.888Z,-2.03
2018-11-28T20:58:04.583Z,-1.89
2018-11-28T21:00:36.004Z,-2.06
2018-11-28T21:03:05.479Z,-2.09
2018-11-28T21:05:34.214Z,-2.19
2018-11-28T21:08:06.028Z,-2.28
2018-11-28T21:10:35.132Z,-2.23
2018-11-28T21:13:04.012Z,-2.30
2018-11-28T21:15:32.831Z,-2.30
2018-11-28T21:18:01.546Z,-2.24
2018-11-28T21:20:30.239Z,-2.35
2018-11-28T21:23:02.280Z,-2.35
2018-11-28T21:25:31.194Z,-2.34
2018-11-28T21:27:59.867Z,-2.31
2018-11-28T21:30:28.577Z,-2.39
2018-11-28T21:32:57.242Z,-2.40
2018-11-28T21:35:29.998Z,-2.38
2018-11-28T21:37:59.314Z,-2.33
2018-11-28T21:40:28.085Z,-2.25
2018-11-28T21:42:56.914Z,-2.26
2018-11-28T21:45:26.203Z,-2.25
2018-11-28T21:47:54.964Z,-2.37
2018-11-28T21:50:23.604Z,-2.33
2018-11-28T21:52:52.261Z,-2.36
2018-11-28T21:55:22.015Z,-2.37
2018-11-28T21:57:50.754Z,-2.24
2018-11-28T22:00:25.581Z,-2.24
2018-11-28T22:02:54.242Z,-2.25
2018-11-28T22:05:23.342Z,-2.31
2018-11-28T22:07:52.042Z,-2.25
2018-11-28T22:10:22.694Z,-2.21
2018-11-28T22:12:51.628Z,-2.23
2018-11-28T22:15:20.280Z,-2.29
2018-11-28T22:17:51.968Z,-2.27
2018-11-28T22:20:20.748Z,-2.27
2018-11-28T22:22:49.422Z,-2.31
2018-11-28T22:25:20.906Z,-2.33
2018-11-28T22:27:49.646Z,-2.32
2018-11-28T22:30:23.133Z,-2.36
2018-11-28T22:32:52.048Z,-2.38
2018-11-28T22:35:20.827Z,-2.41
2018-11-28T22:37:51.772Z,-2.35
2018-11-28T22:40:26.753Z,-2.30
2018-11-28T22:42:55.440Z,-2.32
2018-11-28T22:45:29.927Z,-2.34
2018-11-28T22:48:00.998Z,-2.37
2018-11-28T22:50:29.674Z,-2.41
2018-11-28T22:52:58.374Z,-2.41
2018-11-28T22:55:27.052Z,-2.41
2018-11-28T22:57:55.729Z,-2.50
2018-11-28T23:00:30.299Z,-2.50
2018-11-28T23:03:04.221Z,-2.50
2018-11-28T23:05:40.697Z,-2.49
2018-11-28T23:08:10.408Z,-2.65
2018-11-28T23:10:39.357Z,-2.90
2018-11-28T23:13:08.917Z,-2.92
2018-11-28T23:15:37.663Z,-2.93
2018-11-28T23:18:07.101Z,-2.91
2018-11-28T23:20:36.305Z,-2.86
2018-11-28T23:23:05.324Z,-2.98
2018-11-28T23:25:33.945Z,-2.96
2018-11-28T23:28:03.783Z,-2.93
2018-11-28T23:30:32.467Z,-2.91
2018-11-28T23:33:01.101Z,-2.93
2018-11-28T23:35:29.822Z,-2.91
2018-11-28T23:37:58.625Z,-2.96
2018-11-28T23:40:27.486Z,-2.92
2018-11-28T23:42:58.756Z,-2.94
2018-11-28T23:45:27.790Z,-3.05
2018-11-28T23:47:56.449Z,-2.86
2018-11-28T23:50:26.939Z,-2.75
2018-11-28T23:52:56.320Z,-2.80
2018-11-28T23:55:26.751Z,-2.72
2018-11-28T23:57:55.619Z,-2.65
